キング・ハーリド国際空港(リヤド)の過去48時間の天気

キング・ハーリド国際空港(リヤド) (King Khaled International Airport)

現在時刻: 12/4 08:23 +03 (12/4 05:23 UTC) 以下の時間は現地時間です。

過去48時間のMETAR気象情報
時間 風向 風速(m/s) 視程 気温(℃) 湿度(%) 気圧(hPa) 天気現象
4 08:00 南東 3 10km以上 19 68 1019
4 07:00 南東 2 10km以上 17 77 1018
4 06:00 東南東 1 10km以上 18 73 1018
4 05:00 南南東 2 10km以上 19 68 1017
4 04:00 南南東 3 10km以上 19 68 1017
4 03:00 南東 3 10km以上 20 64 1017
4 02:00 南東 4 10km以上 21 60 1017
4 01:00 南南東 2 10km以上 21 60 1018
4 00:00 南南東 3 10km以上 22 57 1018
3 23:00 南南東 2 10km以上 22 60 1018
3 22:00 南東 2 10km以上 22 60 1019
3 21:00 南東 2 10km以上 23 61 1018
3 20:00 南東 3 10km以上 24 54 1018
3 19:00 南東 1 10km以上 24 57 1019
3 18:00 南東 2 10km以上 25 50 1018
3 17:00 南南東 2 10km以上 27 45 1018
3 16:00 南南東 3 10km以上 27 42 1017
3 15:00 4 10km以上 27 42 1017
3 14:00 5 10km以上 27 39 1018
3 13:00 5 10km以上 26 45 1018
3 12:00 南南東 5 10km以上 26 45 1019
3 11:00 南南東 5 10km以上 24 50 1020
3 10:00 南南東 6 10km以上 23 53 1020
3 09:00 南南東 4 10km以上 21 64 1020
3 08:00 南東 2 10km以上 18 77 1020
3 07:00 南南東 2 10km以上 17 77 1019
3 06:00 南南東 2 10km以上 16 82 1019
3 05:00 南東 2 10km以上 17 83 1019
3 04:00 南東 1 10km以上 16 88 1018
3 03:00 南南東 2 10km以上 17 83 1018
3 02:00 南南東 1 10km以上 17 83 1018
3 01:00 南南東 2 10km以上 18 77 1018
3 00:00 南東 2 8000m 19 78 1018
2 23:00 南東 2 8000m 19 78 1019
2 22:00 南東 2 8000m 19 83 1019
2 21:00 南東 1 8000m 19 78 1019
2 20:00 1 8000m 19 83 1019
2 19:00 東北東 1 8000m 20 78 1019
2 18:00 東南東 1 8000m 21 73 1018
2 17:00 南南東 2 7000m 22 69 1017
2 16:00 4 7000m 23 61 1017
2 15:00 5 6000m 23 61 1017
2 14:00 5 6000m 23 57 1017
2 13:27 南南東 5 5000m 23 57 1017 煙霧
2 13:00 南南東 4 4000m 21 69 1018 煙霧
2 12:00 4 2000m 20 73 1019 煙霧
2 11:00 4 2000m 20 73 1020 煙霧
2 10:00 南南東 4 3000m 19 83 1021 もや
2 09:00 南南東 4 3000m 18 88 1021 もや
2 08:41 南南東 3 3000m 18 88 1021 もや
OERK 040500Z 13005KT 9999 FEW040 19/13 Q1019 NOSIG
OERK 040400Z 13003KT CAVOK 17/13 Q1018 NOSIG
OERK 040300Z 12002KT CAVOK 18/13 Q1018 NOSIG
OERK 040200Z 15004KT CAVOK 19/13 Q1017 NOSIG
OERK 040100Z 16005KT CAVOK 19/13 Q1017 NOSIG
OERK 040000Z 14006KT CAVOK 20/13 Q1017 NOSIG
OERK 032300Z 14007KT CAVOK 21/13 Q1017 NOSIG
OERK 032200Z 15004KT CAVOK 21/13 Q1018 NOSIG
OERK 032100Z 15005KT CAVOK 22/13 Q1018 NOSIG
OERK 032000Z 15004KT CAVOK 22/14 Q1018 NOSIG
OERK 031900Z 14003KT CAVOK 22/14 Q1019 NOSIG
OERK 031800Z 14003KT CAVOK 23/15 Q1018 NOSIG
OERK 031700Z 13005KT CAVOK 24/14 Q1018 NOSIG
OERK 031600Z 13002KT CAVOK 24/15 Q1019 NOSIG
OERK 031500Z 13004KT 9999 FEW035 25/14 Q1018 NOSIG
OERK 031400Z 15003KT 9999 SCT035 27/14 Q1018 NOSIG
OERK 031300Z 16005KT CAVOK 27/13 Q1017 NOSIG
OERK 031200Z 17008KT CAVOK 27/13 Q1017 NOSIG
OERK 031100Z 17009KT 9999 FEW040 27/12 Q1018 NOSIG
OERK 031000Z 17010KT 9999 FEW040 26/13 Q1018 NOSIG
OERK 030900Z 16009KT 9999 FEW040 26/13 Q1019 NOSIG
OERK 030800Z 16009KT 9999 FEW040 24/13 Q1020 NOSIG
OERK 030700Z 16011KT 9999 SCT040 23/13 Q1020 NOSIG
OERK 030600Z 16007KT 9999 FEW040 21/14 Q1020 NOSIG
OERK 030500Z 14003KT 9999 FEW040 18/14 Q1020 NOSIG
OERK 030400Z 16004KT 9999 FEW040 17/13 Q1019 NOSIG
OERK 030300Z 15003KT CAVOK 16/13 Q1019 NOSIG
OERK 030200Z 14003KT CAVOK 17/14 Q1019 NOSIG
OERK 030100Z 14002KT CAVOK 16/14 Q1018 NOSIG
OERK 030000Z 16004KT CAVOK 17/14 Q1018 NOSIG
OERK 022300Z 16002KT CAVOK 17/14 Q1018 NOSIG
OERK 022200Z 15003KT CAVOK 18/14 Q1018 NOSIG
OERK 022100Z 14004KT 8000 NSC 19/15 Q1018 NOSIG
OERK 022000Z 13004KT 8000 NSC 19/15 Q1019 NOSIG
OERK 021900Z 14003KT 8000 FEW040 19/16 Q1019 NOSIG
OERK 021800Z 14002KT 8000 FEW040 19/15 Q1019 NOSIG
OERK 021700Z 10002KT 8000 FEW040 19/16 Q1019 NOSIG
OERK 021600Z 06002KT 8000 SCT040 20/16 Q1019 NOSIG
OERK 021500Z 11002KT 8000 SCT040 21/16 Q1018 NOSIG
OERK 021400Z 15003KT 7000 SCT040 22/16 Q1017 NOSIG
OERK 021300Z 17008KT 7000 BKN040 23/15 Q1017 NOSIG
OERK 021200Z 17010KT 6000 SCT035 BKN040 23/15 Q1017 NOSIG
OERK 021100Z 17010KT 6000 SCT035 BKN040 23/14 Q1017 NOSIG
OERK 021027Z 16009KT 5000 HZ SCT035 BKN040 23/14 Q1017
OERK 021000Z 16007KT 4000 HZ BKN040 21/15 Q1018 NOSIG
OERK 020900Z 17007KT 2000 HZ BKN040 OVC080 20/15 Q1019 NOSIG
OERK 020800Z 18008KT 2000 HZ BKN040 OVC080 20/15 Q1020 TEMPO 1000 TS RA
OERK 020700Z 16007KT 3000 BR BKN040 OVC080 19/16 Q1021 NOSIG
OERK 020600Z 16007KT 3000 BR BKN040 OVC080 18/16 Q1021 NOSIG
OERK 020541Z 15006KT 3000 BR BKN040 18/16 Q1021